sensor_id;sensor_type;location;lat;lon;timestamp;pressure;altitude;pressure_sealevel;temperature;humidity
46394;BME280;32099;53.588;10.176;2023-11-22T00:00:02;102476.72;;;2.40;90.25
46394;BME280;32099;53.588;10.176;2023-11-22T00:02:33;102476.03;;;2.37;90.25
46394;BME280;32099;53.588;10.176;2023-11-22T00:04:59;102405.66;;;1.95;89.76
46394;BME280;32099;53.588;10.176;2023-11-22T00:07:25;102478.19;;;2.30;89.75
46394;BME280;32099;53.588;10.176;2023-11-22T00:09:51;102481.03;;;2.27;89.31
46394;BME280;32099;53.588;10.176;2023-11-22T00:12:19;102474.19;;;2.21;89.63
46394;BME280;32099;53.588;10.176;2023-11-22T00:14:45;102480.59;;;2.19;89.74
46394;BME280;32099;53.588;10.176;2023-11-22T00:17:11;102480.78;;;2.15;89.95
46394;BME280;32099;53.588;10.176;2023-11-22T00:19:36;102480.88;;;2.14;90.90
46394;BME280;32099;53.588;10.176;2023-11-22T00:22:02;102472.91;;;2.12;90.88
46394;BME280;32099;53.588;10.176;2023-11-22T00:24:28;102467.75;;;2.08;90.47
46394;BME280;32099;53.588;10.176;2023-11-22T00:26:54;102473.13;;;2.08;89.99
46394;BME280;32099;53.588;10.176;2023-11-22T00:29:23;102477.91;;;2.03;89.51
46394;BME280;32099;53.588;10.176;2023-11-22T00:31:49;102470.94;;;1.98;90.29
46394;BME280;32099;53.588;10.176;2023-11-22T00:34:14;102463.91;;;1.96;88.95
46394;BME280;32099;53.588;10.176;2023-11-22T00:36:40;102473.88;;;1.94;89.82
46394;BME280;32099;53.588;10.176;2023-11-22T00:39:06;102470.50;;;1.90;89.62
46394;BME280;32099;53.588;10.176;2023-11-22T00:41:33;102473.34;;;1.87;89.34
46394;BME280;32099;53.588;10.176;2023-11-22T00:43:58;102472.56;;;1.85;89.51
46394;BME280;32099;53.588;10.176;2023-11-22T00:46:27;102486.28;;;1.80;89.82
46394;BME280;32099;53.588;10.176;2023-11-22T00:48:53;102502.59;;;1.77;89.64
46394;BME280;32099;53.588;10.176;2023-11-22T00:51:18;102514.38;;;1.75;89.88
46394;BME280;32099;53.588;10.176;2023-11-22T00:53:44;102514.47;;;1.73;90.33
46394;BME280;32099;53.588;10.176;2023-11-22T00:56:10;102528.06;;;1.70;90.61
46394;BME280;32099;53.588;10.176;2023-11-22T00:58:36;102527.38;;;1.66;90.40
46394;BME280;32099;53.588;10.176;2023-11-22T01:01:01;102534.63;;;1.64;89.79
46394;BME280;32099;53.588;10.176;2023-11-22T01:03:30;102544.59;;;1.62;89.93
46394;BME280;32099;53.588;10.176;2023-11-22T01:05:55;102556.31;;;1.61;89.28
46394;BME280;32099;53.588;10.176;2023-11-22T01:08:22;102556.41;;;1.60;89.80
46394;BME280;32099;53.588;10.176;2023-11-22T01:10:48;102552.91;;;1.58;90.33
46394;BME280;32099;53.588;10.176;2023-11-22T01:13:14;102549.53;;;1.54;89.37
46394;BME280;32099;53.588;10.176;2023-11-22T01:15:39;102545.09;;;1.53;89.56
46394;BME280;32099;53.588;10.176;2023-11-22T01:18:05;102541.53;;;1.52;89.14
46394;BME280;32099;53.588;10.176;2023-11-22T01:20:35;102547.06;;;1.49;90.04
46394;BME280;32099;53.588;10.176;2023-11-22T01:23:02;102540.09;;;1.45;89.94
46394;BME280;32099;53.588;10.176;2023-11-22T01:25:27;102535.75;;;1.43;89.84
46394;BME280;32099;53.588;10.176;2023-11-22T01:27:53;102530.63;;;1.38;90.46
46394;BME280;32099;53.588;10.176;2023-11-22T01:30:20;102454.25;;;0.89;90.21
46394;BME280;32099;53.588;10.176;2023-11-22T01:32:46;102538.13;;;1.31;90.31
46394;BME280;32099;53.588;10.176;2023-11-22T01:35:11;102535.53;;;1.30;90.04
46394;BME280;32099;53.588;10.176;2023-11-22T01:37:40;102536.53;;;1.27;90.23
46394;BME280;32099;53.588;10.176;2023-11-22T01:40:07;102534.88;;;1.25;90.54
46394;BME280;32099;53.588;10.176;2023-11-22T01:42:33;102545.88;;;1.20;90.61
46394;BME280;32099;53.588;10.176;2023-11-22T01:44:59;102525.47;;;0.98;91.01
46394;BME280;32099;53.588;10.176;2023-11-22T01:47:25;102555.03;;;1.16;91.27
46394;BME280;32099;53.588;10.176;2023-11-22T01:49:51;102544.22;;;1.17;90.54
46394;BME280;32099;53.588;10.176;2023-11-22T01:52:17;102546.97;;;1.16;90.25
46394;BME280;32099;53.588;10.176;2023-11-22T01:54:46;102553.31;;;1.15;90.94
46394;BME280;32099;53.588;10.176;2023-11-22T01:57:12;102549.03;;;1.11;91.20
46394;BME280;32099;53.588;10.176;2023-11-22T01:59:39;102539.31;;;1.08;90.76
46394;BME280;32099;53.588;10.176;2023-11-22T02:02:05;102539.56;;;1.03;91.16
46394;BME280;32099;53.588;10.176;2023-11-22T02:04:31;102543.94;;;1.04;90.89
46394;BME280;32099;53.588;10.176;2023-11-22T02:06:56;102516.03;;;0.89;91.10
46394;BME280;32099;53.588;10.176;2023-11-22T02:09:22;102537.63;;;1.05;91.42
46394;BME280;32099;53.588;10.176;2023-11-22T02:11:50;102533.16;;;1.06;90.36
46394;BME280;32099;53.588;10.176;2023-11-22T02:14:16;102546.63;;;1.04;90.89
46394;BME280;32099;53.588;10.176;2023-11-22T02:16:42;102538.75;;;1.01;92.01
46394;BME280;32099;53.588;10.176;2023-11-22T02:19:09;102539.69;;;1.00;91.12
46394;BME280;32099;53.588;10.176;2023-11-22T02:21:40;102545.94;;;1.01;90.51
46394;BME280;32099;53.588;10.176;2023-11-22T02:24:08;102552.25;;;1.00;89.96
46394;BME280;32099;53.588;10.176;2023-11-22T02:26:34;102554.16;;;0.98;91.07
46394;BME280;32099;53.588;10.176;2023-11-22T02:29:00;102564.25;;;0.92;90.60
46394;BME280;32099;53.588;10.176;2023-11-22T02:31:25;102572.41;;;0.91;91.04
46394;BME280;32099;53.588;10.176;2023-11-22T02:33:51;102574.19;;;0.90;90.80
46394;BME280;32099;53.588;10.176;2023-11-22T02:36:17;102575.13;;;0.89;90.67
46394;BME280;32099;53.588;10.176;2023-11-22T02:38:44;102585.09;;;0.87;91.20
46394;BME280;32099;53.588;10.176;2023-11-22T02:41:12;102589.59;;;0.87;90.75
46394;BME280;32099;53.588;10.176;2023-11-22T02:43:38;102591.47;;;0.85;91.19
46394;BME280;32099;53.588;10.176;2023-11-22T02:46:04;102594.16;;;0.85;91.21
46394;BME280;32099;53.588;10.176;2023-11-22T02:48:29;102600.44;;;0.85;90.78
46394;BME280;32099;53.588;10.176;2023-11-22T02:50:55;102597.94;;;0.81;91.46
46394;BME280;32099;53.588;10.176;2023-11-22T02:53:21;102605.22;;;0.79;90.72
46394;BME280;32099;53.588;10.176;2023-11-22T02:55:47;102599.03;;;0.76;91.28
46394;BME280;32099;53.588;10.176;2023-11-22T02:58:15;102606.09;;;0.79;91.00
46394;BME280;32099;53.588;10.176;2023-11-22T03:00:41;102609.78;;;0.76;90.55
46394;BME280;32099;53.588;10.176;2023-11-22T03:03:06;102612.47;;;0.76;91.30
46394;BME280;32099;53.588;10.176;2023-11-22T03:05:32;102611.59;;;0.76;90.86
46394;BME280;32099;53.588;10.176;2023-11-22T03:07:59;102614.28;;;0.76;90.93
46394;BME280;32099;53.588;10.176;2023-11-22T03:10:25;102607.09;;;0.76;90.60
46394;BME280;32099;53.588;10.176;2023-11-22T03:12:50;102621.41;;;0.77;90.66
46394;BME280;32099;53.588;10.176;2023-11-22T03:15:19;102618.94;;;0.72;90.47
46394;BME280;32099;53.588;10.176;2023-11-22T03:17:44;102618.28;;;0.67;91.35
46394;BME280;32099;53.588;10.176;2023-11-22T03:20:10;102614.66;;;0.68;91.28
46394;BME280;32099;53.588;10.176;2023-11-22T03:22:36;102612.94;;;0.67;90.65
46394;BME280;32099;53.588;10.176;2023-11-22T03:25:03;102611.31;;;0.63;90.75
46394;BME280;32099;53.588;10.176;2023-11-22T03:27:30;102615.81;;;0.63;91.89
46394;BME280;32099;53.588;10.176;2023-11-22T03:29:56;102614.94;;;0.62;91.00
46394;BME280;32099;53.588;10.176;2023-11-22T03:32:24;102613.06;;;0.64;91.42
46394;BME280;32099;53.588;10.176;2023-11-22T03:34:50;102621.13;;;0.64;91.33
46394;BME280;32099;53.588;10.176;2023-11-22T03:37:15;102627.28;;;0.66;91.97
46394;BME280;32099;53.588;10.176;2023-11-22T03:39:43;102642.50;;;0.66;91.23
46394;BME280;32099;53.588;10.176;2023-11-22T03:42:08;102638.97;;;0.65;91.36
46394;BME280;32099;53.588;10.176;2023-11-22T03:44:35;102634.53;;;0.64;90.71
46394;BME280;32099;53.588;10.176;2023-11-22T03:47:01;102640.72;;;0.66;90.90
46394;BME280;32099;53.588;10.176;2023-11-22T03:49:32;102638.03;;;0.66;91.15
46394;BME280;32099;53.588;10.176;2023-11-22T03:51:58;102639.91;;;0.64;91.20
46394;BME280;32099;53.588;10.176;2023-11-22T03:54:24;102647.97;;;0.64;90.52
46394;BME280;32099;53.588;10.176;2023-11-22T03:56:49;102644.47;;;0.62;90.52
46394;BME280;32099;53.588;10.176;2023-11-22T03:59:15;102634.81;;;0.58;90.30
46394;BME280;32099;53.588;10.176;2023-11-22T04:01:41;102651.09;;;0.55;89.99
46394;BME280;32099;53.588;10.176;2023-11-22T04:04:07;102651.13;;;0.53;89.82
46394;BME280;32099;53.588;10.176;2023-11-22T04:06:35;102654.84;;;0.51;90.54
46394;BME280;32099;53.588;10.176;2023-11-22T04:09:01;102660.34;;;0.48;90.58
46394;BME280;32099;53.588;10.176;2023-11-22T04:11:27;102659.41;;;0.49;91.26
46394;BME280;32099;53.588;10.176;2023-11-22T04:13:53;102653.09;;;0.50;90.39
46394;BME280;32099;53.588;10.176;2023-11-22T04:16:19;102661.28;;;0.46;89.93
46394;BME280;32099;53.588;10.176;2023-11-22T04:18:44;102663.31;;;0.41;90.53
46394;BME280;32099;53.588;10.176;2023-11-22T04:21:10;102652.50;;;0.43;91.55
46394;BME280;32099;53.588;10.176;2023-11-22T04:23:38;102644.41;;;0.44;91.89
46394;BME280;32099;53.588;10.176;2023-11-22T04:26:04;102642.50;;;0.46;91.07
46394;BME280;32099;53.588;10.176;2023-11-22T04:28:30;102650.53;;;0.46;91.25
46394;BME280;32099;53.588;10.176;2023-11-22T04:30:56;102649.78;;;0.44;91.08
46394;BME280;32099;53.588;10.176;2023-11-22T04:33:22;102648.84;;;0.45;91.12
46394;BME280;32099;53.588;10.176;2023-11-22T04:35:48;102641.63;;;0.46;91.20
46394;BME280;32099;53.588;10.176;2023-11-22T04:38:14;102638.09;;;0.45;91.19
46394;BME280;32099;53.588;10.176;2023-11-22T04:40:43;102644.41;;;0.44;92.03
46394;BME280;32099;53.588;10.176;2023-11-22T04:43:09;102647.94;;;0.45;90.65
46394;BME280;32099;53.588;10.176;2023-11-22T04:45:34;102637.28;;;0.43;90.91
46394;BME280;32099;53.588;10.176;2023-11-22T04:48:00;102641.84;;;0.41;90.85
46394;BME280;32099;53.588;10.176;2023-11-22T04:50:26;102647.22;;;0.41;90.61
46394;BME280;32099;53.588;10.176;2023-11-22T04:52:52;102642.88;;;0.39;91.20
46394;BME280;32099;53.588;10.176;2023-11-22T04:55:18;102643.81;;;0.38;90.97
46394;BME280;32099;53.588;10.176;2023-11-22T04:57:47;102636.75;;;0.35;90.74
46394;BME280;32099;53.588;10.176;2023-11-22T05:00:14;102646.75;;;0.32;90.74
46394;BME280;32099;53.588;10.176;2023-11-22T05:02:40;102655.69;;;0.32;91.41
46394;BME280;32099;53.588;10.176;2023-11-22T05:05:06;102647.69;;;0.30;90.90
46394;BME280;32099;53.588;10.176;2023-11-22T05:07:32;102643.25;;;0.29;91.21
46394;BME280;32099;53.588;10.176;2023-11-22T05:09:58;102646.03;;;0.28;91.53
46394;BME280;32099;53.588;10.176;2023-11-22T05:12:23;102647.03;;;0.25;90.93
46394;BME280;32099;53.588;10.176;2023-11-22T05:14:52;102644.34;;;0.25;91.59
46394;BME280;32099;53.588;10.176;2023-11-22T05:17:17;102649.78;;;0.24;91.65
46394;BME280;32099;53.588;10.176;2023-11-22T05:19:43;102656.13;;;0.23;91.69
46394;BME280;32099;53.588;10.176;2023-11-22T05:22:09;102648.09;;;0.21;90.57
46394;BME280;32099;53.588;10.176;2023-11-22T05:24:34;102644.63;;;0.19;91.22
46394;BME280;32099;53.588;10.176;2023-11-22T05:27:00;102657.09;;;0.20;90.96
46394;BME280;32099;53.588;10.176;2023-11-22T05:29:26;102661.53;;;0.21;91.21
46394;BME280;32099;53.588;10.176;2023-11-22T05:31:54;102666.03;;;0.21;90.06
46394;BME280;32099;53.588;10.176;2023-11-22T05:34:20;102690.25;;;0.19;90.43
46394;BME280;32099;53.588;10.176;2023-11-22T05:36:45;102704.78;;;0.13;90.92
46394;BME280;32099;53.588;10.176;2023-11-22T05:39:11;102711.91;;;0.14;91.33
46394;BME280;32099;53.588;10.176;2023-11-22T05:41:37;102702.13;;;0.13;89.99
46394;BME280;32099;53.588;10.176;2023-11-22T05:44:03;102647.53;;;-0.27;90.57
46394;BME280;32099;53.588;10.176;2023-11-22T05:46:30;102703.22;;;0.09;91.42
46394;BME280;32099;53.588;10.176;2023-11-22T05:48:58;102706.69;;;0.11;90.38
46394;BME280;32099;53.588;10.176;2023-11-22T05:51:24;102695.19;;;0.08;90.21
46394;BME280;32099;53.588;10.176;2023-11-22T05:53:50;102698.09;;;0.03;91.36
46394;BME280;32099;53.588;10.176;2023-11-22T05:56:16;102693.63;;;0.04;91.29
46394;BME280;32099;53.588;10.176;2023-11-22T05:58:42;102682.81;;;0.05;91.60
46394;BME280;32099;53.588;10.176;2023-11-22T06:01:08;102678.31;;;0.06;91.03
46394;BME280;32099;53.588;10.176;2023-11-22T06:03:35;102696.09;;;0.08;90.83
46394;BME280;32099;53.588;10.176;2023-11-22T06:06:05;102684.63;;;0.05;90.77
46394;BME280;32099;53.588;10.176;2023-11-22T06:08:31;102695.28;;;0.06;91.47
46394;BME280;32099;53.588;10.176;2023-11-22T06:10:57;102696.09;;;0.08;91.43
46394;BME280;32099;53.588;10.176;2023-11-22T06:13:22;102693.41;;;0.08;91.34
46394;BME280;32099;53.588;10.176;2023-11-22T06:15:48;102682.72;;;0.07;91.43
46394;BME280;32099;53.588;10.176;2023-11-22T06:18:14;102682.72;;;0.07;91.59
46394;BME280;32099;53.588;10.176;2023-11-22T06:20:40;102681.06;;;0.04;91.64
46394;BME280;32099;53.588;10.176;2023-11-22T06:23:08;102675.91;;;-0.01;91.03
46394;BME280;32099;53.588;10.176;2023-11-22T06:25:34;102665.28;;;-0.04;91.65
46394;BME280;32099;53.588;10.176;2023-11-22T06:28:00;102665.38;;;-0.05;91.74
46394;BME280;32099;53.588;10.176;2023-11-22T06:30:25;102668.91;;;-0.05;91.96
46394;BME280;32099;53.588;10.176;2023-11-22T06:32:51;102672.41;;;-0.03;91.82
46394;BME280;32099;53.588;10.176;2023-11-22T06:35:17;102664.34;;;-0.03;91.74
46394;BME280;32099;53.588;10.176;2023-11-22T06:37:43;102648.25;;;-0.03;91.99
46394;BME280;32099;53.588;10.176;2023-11-22T06:40:12;102658.94;;;-0.01;92.20
46394;BME280;32099;53.588;10.176;2023-11-22T06:42:39;102655.25;;;0.02;92.10
46394;BME280;32099;53.588;10.176;2023-11-22T06:45:05;102650.69;;;0.04;91.95
46394;BME280;32099;53.588;10.176;2023-11-22T06:47:32;102669.25;;;0.08;90.94
46394;BME280;32099;53.588;10.176;2023-11-22T06:49:58;102673.75;;;0.08;90.91
46394;BME280;32099;53.588;10.176;2023-11-22T06:52:24;102671.94;;;0.08;91.53
46394;BME280;32099;53.588;10.176;2023-11-22T06:54:50;102672.81;;;0.09;91.52
46394;BME280;32099;53.588;10.176;2023-11-22T06:57:19;102681.66;;;0.11;92.17
46394;BME280;32099;53.588;10.176;2023-11-22T06:59:45;102671.81;;;0.11;91.55
46394;BME280;32099;53.588;10.176;2023-11-22T07:02:11;102667.22;;;0.13;91.79
46394;BME280;32099;53.588;10.176;2023-11-22T07:04:37;102659.25;;;0.12;92.03
46394;BME280;32099;53.588;10.176;2023-11-22T07:07:02;102656.50;;;0.13;91.97
46394;BME280;32099;53.588;10.176;2023-11-22T07:09:28;102637.66;;;0.15;91.63
46394;BME280;32099;53.588;10.176;2023-11-22T07:11:54;102650.19;;;0.14;92.40
46394;BME280;32099;53.588;10.176;2023-11-22T07:14:23;102651.88;;;0.17;92.18
46394;BME280;32099;53.588;10.176;2023-11-22T07:16:48;102658.03;;;0.19;92.16
46394;BME280;32099;53.588;10.176;2023-11-22T07:19:14;102670.38;;;0.23;93.15
46394;BME280;32099;53.588;10.176;2023-11-22T07:21:40;102669.31;;;0.27;92.85
46394;BME280;32099;53.588;10.176;2023-11-22T07:24:06;102680.78;;;0.31;92.12
46394;BME280;32099;53.588;10.176;2023-11-22T07:26:32;102686.97;;;0.33;92.41
46394;BME280;32099;53.588;10.176;2023-11-22T07:28:58;102681.50;;;0.35;93.05
46394;BME280;32099;53.588;10.176;2023-11-22T07:31:26;102678.75;;;0.36;92.76
46394;BME280;32099;53.588;10.176;2023-11-22T07:33:52;102678.63;;;0.39;92.72
46394;BME280;32099;53.588;10.176;2023-11-22T07:36:18;102675.94;;;0.39;92.71
46394;BME280;32099;53.588;10.176;2023-11-22T07:38:48;102677.59;;;0.42;92.72
46394;BME280;32099;53.588;10.176;2023-11-22T07:41:13;102689.97;;;0.46;92.73
46394;BME280;32099;53.588;10.176;2023-11-22T07:43:39;102691.63;;;0.49;93.11
46394;BME280;32099;53.588;10.176;2023-11-22T07:46:06;102701.28;;;0.53;93.02
46394;BME280;32099;53.588;10.176;2023-11-22T07:48:35;102712.69;;;0.58;92.91
46394;BME280;32099;53.588;10.176;2023-11-22T07:51:01;102732.25;;;0.61;92.47
46394;BME280;32099;53.588;10.176;2023-11-22T07:53:27;102734.75;;;0.65;91.71
46394;BME280;32099;53.588;10.176;2023-11-22T07:55:53;102736.47;;;0.67;91.68
46394;BME280;32099;53.588;10.176;2023-11-22T07:58:20;102743.50;;;0.70;92.35
46394;BME280;32099;53.588;10.176;2023-11-22T08:00:45;102747.97;;;0.69;93.03
46394;BME280;32099;53.588;10.176;2023-11-22T08:03:19;102747.94;;;0.71;92.20
46394;BME280;32099;53.588;10.176;2023-11-22T08:05:54;102744.31;;;0.72;92.94
46394;BME280;32099;53.588;10.176;2023-11-22T08:11:28;102733.22;;;0.80;92.65
46394;BME280;32099;53.588;10.176;2023-11-22T08:13:54;102719.03;;;0.76;93.35
46394;BME280;32099;53.588;10.176;2023-11-22T08:16:19;102733.66;;;0.89;93.11
46394;BME280;32099;53.588;10.176;2023-11-22T08:18:45;102715.66;;;0.91;93.49
46394;BME280;32099;53.588;10.176;2023-11-22T08:24:19;102711.88;;;0.96;93.50
46394;BME280;32099;53.588;10.176;2023-11-22T08:26:45;102710.06;;;0.96;92.82
46394;BME280;32099;53.588;10.176;2023-11-22T08:29:12;102710.72;;;1.01;94.07
46394;BME280;32099;53.588;10.176;2023-11-22T08:32:10;102696.13;;;1.07;93.76
46394;BME280;32099;53.588;10.176;2023-11-22T08:34:36;102691.59;;;1.07;93.59
46394;BME280;32099;53.588;10.176;2023-11-22T08:37:01;102689.72;;;1.10;93.38
46394;BME280;32099;53.588;10.176;2023-11-22T08:39:30;102711.94;;;1.13;93.29
46394;BME280;32099;53.588;10.176;2023-11-22T08:41:56;102716.16;;;1.19;93.59
46394;BME280;32099;53.588;10.176;2023-11-22T08:44:21;102716.81;;;1.24;93.09
46394;BME280;32099;53.588;10.176;2023-11-22T08:46:47;102713.97;;;1.27;94.08
46394;BME280;32099;53.588;10.176;2023-11-22T08:49:13;102703.16;;;1.29;93.44
46394;BME280;32099;53.588;10.176;2023-11-22T08:51:38;102709.25;;;1.32;93.92
46394;BME280;32099;53.588;10.176;2023-11-22T08:54:04;102709.25;;;1.32;93.92
46394;BME280;32099;53.588;10.176;2023-11-22T08:56:33;102709.72;;;1.41;93.32
46394;BME280;32099;53.588;10.176;2023-11-22T08:58:58;102710.44;;;1.44;93.41
46394;BME280;32099;53.588;10.176;2023-11-22T09:01:24;102712.06;;;1.48;93.08
46394;BME280;32099;53.588;10.176;2023-11-22T09:03:50;102723.53;;;1.52;93.47
46394;BME280;32099;53.588;10.176;2023-11-22T09:06:16;102722.44;;;1.56;92.90
46394;BME280;32099;53.588;10.176;2023-11-22T09:08:42;102727.69;;;1.59;93.75
46394;BME280;32099;53.588;10.176;2023-11-22T09:11:07;102707.81;;;1.62;93.22
46394;BME280;32099;53.588;10.176;2023-11-22T09:16:34;102707.66;;;1.65;93.13
46394;BME280;32099;53.588;10.176;2023-11-22T09:19:02;102654.53;;;1.33;93.54
46394;BME280;32099;53.588;10.176;2023-11-22T09:21:28;102698.47;;;1.69;93.48
46394;BME280;32099;53.588;10.176;2023-11-22T09:23:56;102700.94;;;1.74;93.82
46394;BME280;32099;53.588;10.176;2023-11-22T09:26:23;102707.22;;;1.74;93.66
46394;BME280;32099;53.588;10.176;2023-11-22T09:28:53;102703.63;;;1.74;93.80
46394;BME280;32099;53.588;10.176;2023-11-22T09:31:21;102711.63;;;1.75;93.12
46394;BME280;32099;53.588;10.176;2023-11-22T09:33:50;102716.78;;;1.80;94.09
46394;BME280;32099;53.588;10.176;2023-11-22T09:36:17;102736.34;;;1.83;93.28
46394;BME280;32099;53.588;10.176;2023-11-22T09:38:43;102732.47;;;1.89;94.08
46394;BME280;32099;53.588;10.176;2023-11-22T09:41:14;102733.13;;;1.94;93.93
46394;BME280;32099;53.588;10.176;2023-11-22T09:43:40;102729.25;;;2.00;94.54
46394;BME280;32099;53.588;10.176;2023-11-22T09:46:12;102746.00;;;2.05;93.34
46394;BME280;32099;53.588;10.176;2023-11-22T09:48:41;102740.31;;;2.11;93.69
46394;BME280;32099;53.588;10.176;2023-11-22T09:51:18;102745.47;;;2.16;93.83
46394;BME280;32099;53.588;10.176;2023-11-22T09:53:50;102747.03;;;2.20;93.23
46394;BME280;32099;53.588;10.176;2023-11-22T09:56:18;102756.63;;;2.26;92.84
46394;BME280;32099;53.588;10.176;2023-11-22T09:58:45;102758.13;;;2.31;93.09
46394;BME280;32099;53.588;10.176;2023-11-22T10:01:18;102741.91;;;2.33;93.45
46394;BME280;32099;53.588;10.176;2023-11-22T10:03:44;102740.88;;;2.36;93.08
46394;BME280;32099;53.588;10.176;2023-11-22T10:06:11;102745.22;;;2.38;93.00
46394;BME280;32099;53.588;10.176;2023-11-22T10:08:40;102739.66;;;2.41;93.02
46394;BME280;32099;53.588;10.176;2023-11-22T10:11:08;102738.56;;;2.45;93.60
46394;BME280;32099;53.588;10.176;2023-11-22T10:13:34;102733.88;;;2.49;93.07
46394;BME280;32099;53.588;10.176;2023-11-22T10:16:08;102722.06;;;2.52;94.08
46394;BME280;32099;53.588;10.176;2023-11-22T10:18:35;102725.47;;;2.55;94.07
46394;BME280;32099;53.588;10.176;2023-11-22T10:21:04;102716.38;;;2.58;93.62
46394;BME280;32099;53.588;10.176;2023-11-22T10:23:46;102714.28;;;2.63;94.09
46394;BME280;32099;53.588;10.176;2023-11-22T10:26:12;102701.44;;;2.68;93.51
46394;BME280;32099;53.588;10.176;2023-11-22T10:28:38;102702.94;;;2.74;94.00
46394;BME280;32099;53.588;10.176;2023-11-22T10:31:05;102696.50;;;2.76;94.11
46394;BME280;32099;53.588;10.176;2023-11-22T10:33:32;102696.34;;;2.80;93.44
46394;BME280;32099;53.588;10.176;2023-11-22T10:35:58;102682.50;;;2.86;93.93
46394;BME280;32099;53.588;10.176;2023-11-22T10:38:24;102610.94;;;2.48;94.01
46394;BME280;32099;53.588;10.176;2023-11-22T10:40:54;102680.34;;;2.92;94.03
46394;BME280;32099;53.588;10.176;2023-11-22T10:43:20;102668.50;;;2.95;93.37
46394;BME280;32099;53.588;10.176;2023-11-22T10:45:47;102665.75;;;2.97;94.05
46394;BME280;32099;53.588;10.176;2023-11-22T10:48:14;102653.66;;;3.04;93.55
46394;BME280;32099;53.588;10.176;2023-11-22T10:50:40;102648.97;;;3.07;92.97
46394;BME280;32099;53.588;10.176;2023-11-22T10:53:07;102651.75;;;3.06;93.77
46394;BME280;32099;53.588;10.176;2023-11-22T10:55:37;102648.97;;;3.07;94.09
46394;BME280;32099;53.588;10.176;2023-11-22T10:58:08;102631.66;;;3.12;93.63
46394;BME280;32099;53.588;10.176;2023-11-22T11:00:35;102630.53;;;3.16;93.07
46394;BME280;32099;53.588;10.176;2023-11-22T11:03:07;102624.25;;;3.15;92.39
46394;BME280;32099;53.588;10.176;2023-11-22T11:05:38;102608.09;;;3.15;92.92
46394;BME280;32099;53.588;10.176;2023-11-22T11:08:07;102619.56;;;3.19;93.28
46394;BME280;32099;53.588;10.176;2023-11-22T11:10:34;102606.75;;;3.22;93.16
46394;BME280;32099;53.588;10.176;2023-11-22T11:13:00;102607.53;;;3.24;92.45
46394;BME280;32099;53.588;10.176;2023-11-22T11:15:28;102610.25;;;3.24;91.64
46394;BME280;32099;53.588;10.176;2023-11-22T11:17:55;102592.25;;;3.25;91.74
46394;BME280;32099;53.588;10.176;2023-11-22T11:20:22;102587.66;;;3.27;90.57
46394;BME280;32099;53.588;10.176;2023-11-22T11:22:48;102575.13;;;3.26;90.79
46394;BME280;32099;53.588;10.176;2023-11-22T11:25:15;102567.03;;;3.26;91.43
46394;BME280;32099;53.588;10.176;2023-11-22T11:27:41;102548.81;;;3.30;91.31
46394;BME280;32099;53.588;10.176;2023-11-22T11:33:05;102530.44;;;3.36;90.27
46394;BME280;32099;53.588;10.176;2023-11-22T11:35:37;102520.53;;;3.37;89.71
46394;BME280;32099;53.588;10.176;2023-11-22T11:38:03;102456.88;;;3.04;89.14
46394;BME280;32099;53.588;10.176;2023-11-22T11:40:31;102514.34;;;3.35;89.07
46394;BME280;32099;53.588;10.176;2023-11-22T11:42:58;102509.84;;;3.35;89.32
46394;BME280;32099;53.588;10.176;2023-11-22T11:45:24;102500.09;;;3.33;87.73
46394;BME280;32099;53.588;10.176;2023-11-22T11:47:50;102492.97;;;3.32;88.46
46394;BME280;32099;53.588;10.176;2023-11-22T11:50:20;102486.81;;;3.30;88.26
46394;BME280;32099;53.588;10.176;2023-11-22T11:52:45;102479.56;;;3.30;86.91
46394;BME280;32099;53.588;10.176;2023-11-22T11:55:11;102478.72;;;3.30;87.52
46394;BME280;32099;53.588;10.176;2023-11-22T11:57:37;102470.44;;;3.33;87.22
46394;BME280;32099;53.588;10.176;2023-11-22T12:00:03;102447.81;;;3.35;86.58
46394;BME280;32099;53.588;10.176;2023-11-22T12:02:36;102440.38;;;3.39;87.04
46394;BME280;32099;53.588;10.176;2023-11-22T12:05:02;102430.09;;;3.46;88.38
46394;BME280;32099;53.588;10.176;2023-11-22T12:07:31;102429.81;;;3.50;88.83
46394;BME280;32099;53.588;10.176;2023-11-22T12:09:57;102447.63;;;3.53;85.75
46394;BME280;32099;53.588;10.176;2023-11-22T12:12:23;102469.13;;;3.54;86.98
46394;BME280;32099;53.588;10.176;2023-11-22T12:14:48;102496.88;;;3.57;86.96
46394;BME280;32099;53.588;10.176;2023-11-22T12:17:14;102512.00;;;3.59;87.59
46394;BME280;32099;53.588;10.176;2023-11-22T12:19:40;102485.69;;;3.63;86.83
46394;BME280;32099;53.588;10.176;2023-11-22T12:22:05;102459.50;;;3.65;87.65
46394;BME280;32099;53.588;10.176;2023-11-22T12:24:34;102469.13;;;3.69;85.59
46394;BME280;32099;53.588;10.176;2023-11-22T12:27:00;102468.25;;;3.68;84.99
46394;BME280;32099;53.588;10.176;2023-11-22T12:29:25;102460.06;;;3.70;84.31
46394;BME280;32099;53.588;10.176;2023-11-22T12:31:51;102464.50;;;3.71;85.25
46394;BME280;32099;53.588;10.176;2023-11-22T12:34:17;102465.16;;;3.75;85.75
46394;BME280;32099;53.588;10.176;2023-11-22T12:36:45;102471.25;;;3.78;85.19
46394;BME280;32099;53.588;10.176;2023-11-22T12:39:11;102472.13;;;3.79;84.33
46394;BME280;32099;53.588;10.176;2023-11-22T12:41:43;102459.59;;;3.78;84.59
46394;BME280;32099;53.588;10.176;2023-11-22T12:44:10;102452.44;;;3.77;82.75
46394;BME280;32099;53.588;10.176;2023-11-22T12:46:48;102448.00;;;3.76;84.26
46394;BME280;32099;53.588;10.176;2023-11-22T12:49:15;102433.78;;;3.74;84.55
46394;BME280;32099;53.588;10.176;2023-11-22T12:51:45;102427.38;;;3.75;84.89
46394;BME280;32099;53.588;10.176;2023-11-22T12:54:11;102435.41;;;3.76;86.29
46394;BME280;32099;53.588;10.176;2023-11-22T12:56:37;102438.78;;;3.80;85.49
46394;BME280;32099;53.588;10.176;2023-11-22T12:59:05;102427.88;;;3.81;85.48